createdAt,value
2022-09-15T00:00:53.999Z,99284.81
2022-09-15T00:03:21.649Z,99277.66
2022-09-15T00:05:48.192Z,99282.31
2022-09-15T00:08:14.760Z,99281.47
2022-09-15T00:10:51.049Z,99278.16
2022-09-15T00:13:17.552Z,99277.59
2022-09-15T00:15:44.389Z,99279.13
2022-09-15T00:18:11.250Z,99278.56
2022-09-15T00:20:42.100Z,99271.97
2022-09-15T00:23:09.441Z,99277.47
2022-09-15T00:25:41.351Z,99279.63
2022-09-15T00:28:07.809Z,99277.47
2022-09-15T00:30:34.276Z,99277.13
2022-09-15T00:33:01.169Z,99272.38
2022-09-15T00:35:27.669Z,99272.84
2022-09-15T00:37:54.219Z,99260.84
2022-09-15T00:40:20.975Z,99262.72
2022-09-15T00:42:47.576Z,99275.59
2022-09-15T00:45:16.045Z,99261.81
2022-09-15T00:47:43.315Z,99272.28
2022-09-15T00:50:11.280Z,99274.53
2022-09-15T00:52:37.715Z,99270.69
2022-09-15T00:55:08.295Z,99272.03
2022-09-15T00:57:37.798Z,99271.78
2022-09-15T01:00:06.946Z,99267.97
2022-09-15T01:02:34.643Z,99270.22
2022-09-15T01:05:02.371Z,99263.66
2022-09-15T01:07:32.067Z,99260.34
2022-09-15T01:10:04.409Z,99262.00
2022-09-15T01:12:30.891Z,99252.13
2022-09-15T01:14:59.878Z,99257.00
2022-09-15T01:18:05.132Z,99262.47
2022-09-15T01:20:34.667Z,99272.38
2022-09-15T01:23:01.061Z,99255.38
2022-09-15T01:25:33.216Z,99258.34
2022-09-15T01:28:14.669Z,99254.75
2022-09-15T01:30:44.788Z,99256.34
2022-09-15T01:33:14.937Z,99257.63
2022-09-15T01:35:43.958Z,99254.66
2022-09-15T01:38:10.380Z,99255.16
2022-09-15T01:40:43.443Z,99256.47
2022-09-15T01:43:10.579Z,99258.97
2022-09-15T01:45:39.169Z,99255.16
2022-09-15T01:48:07.842Z,99249.19
2022-09-15T01:50:37.989Z,99245.38
2022-09-15T01:53:08.871Z,99244.88
2022-09-15T01:55:39.484Z,99242.16
2022-09-15T01:58:07.169Z,99239.41
2022-09-15T02:00:35.517Z,99232.50
2022-09-15T02:03:05.027Z,99236.56
2022-09-15T02:05:37.499Z,99240.38
2022-09-15T02:08:25.405Z,99233.72
2022-09-15T02:11:04.319Z,99222.28
2022-09-15T02:13:35.045Z,99220.81
2022-09-15T02:16:02.309Z,99218.66
2022-09-15T02:18:39.499Z,99215.34
2022-09-15T02:21:09.276Z,99206.56
2022-09-15T02:23:39.365Z,99215.84
2022-09-15T02:26:09.872Z,99210.34
2022-09-15T02:28:38.788Z,99207.38
2022-09-15T02:31:07.342Z,99209.88
2022-09-15T02:33:37.205Z,99199.50
2022-09-15T02:36:04.138Z,99203.41
2022-09-15T02:38:33.978Z,99202.91
2022-09-15T02:41:01.222Z,99201.38
2022-09-15T02:43:28.120Z,99204.09
2022-09-15T02:45:55.179Z,99188.25
2022-09-15T02:48:22.024Z,99192.66
2022-09-15T02:50:48.500Z,99190.50
2022-09-15T02:53:15.022Z,99189.44
2022-09-15T02:55:41.986Z,99183.94
2022-09-15T02:58:08.435Z,99181.22
2022-09-15T03:00:35.050Z,99188.34
2022-09-15T03:03:01.531Z,99175.25
2022-09-15T03:05:28.979Z,99167.59
2022-09-15T03:07:55.929Z,99167.59
2022-09-15T03:10:22.922Z,99167.59
2022-09-15T03:12:51.319Z,99163.19
2022-09-15T03:15:18.882Z,99165.09
2022-09-15T03:17:46.456Z,99162.69
2022-09-15T03:20:14.334Z,99158.88
2022-09-15T03:22:40.890Z,99155.66
2022-09-15T03:25:07.631Z,99147.50
2022-09-15T03:27:34.811Z,99149.19
2022-09-15T03:30:01.904Z,99152.50
2022-09-15T03:32:28.704Z,99152.50
2022-09-15T03:34:58.560Z,99147.00
2022-09-15T03:37:25.709Z,99139.88
2022-09-15T03:39:52.945Z,99138.22
2022-09-15T03:42:19.941Z,99138.22
2022-09-15T03:44:46.367Z,99150.84
2022-09-15T03:47:13.154Z,99147.84
2022-09-15T03:49:39.590Z,99142.69
2022-09-15T03:52:06.028Z,99138.13
2022-09-15T03:54:32.471Z,99144.19
2022-09-15T03:56:58.956Z,99137.88
2022-09-15T03:59:25.422Z,99135.06
2022-09-15T04:01:51.876Z,99132.31
2022-09-15T04:04:18.415Z,99133.38
2022-09-15T04:06:45.087Z,99125.44
2022-09-15T04:09:11.778Z,99129.25
2022-09-15T04:11:38.486Z,99126.75
2022-09-15T04:14:04.939Z,99125.09
2022-09-15T04:16:31.419Z,99122.09
2022-09-15T04:18:58.032Z,99128.94
2022-09-15T04:21:25.424Z,99117.97
2022-09-15T04:23:52.438Z,99116.63
2022-09-15T04:26:30.009Z,99116.38
2022-09-15T04:28:58.715Z,99122.41
2022-09-15T04:31:28.329Z,99110.97
2022-09-15T04:33:55.389Z,99118.69
2022-09-15T04:36:23.305Z,99116.53
2022-09-15T04:38:54.405Z,99111.63
2022-09-15T04:41:21.046Z,99105.66
2022-09-15T04:43:48.119Z,99116.09
2022-09-15T04:46:15.251Z,99104.19
2022-09-15T04:48:41.839Z,99109.31
2022-09-15T04:51:10.696Z,99110.81
2022-09-15T04:53:37.686Z,99112.78
2022-09-15T04:56:05.911Z,99112.84
2022-09-15T04:58:35.523Z,99122.22
2022-09-15T05:01:06.927Z,99125.56
2022-09-15T05:03:35.031Z,99128.34
2022-09-15T05:06:01.929Z,99132.81
2022-09-15T05:08:28.354Z,99139.47
2022-09-15T05:10:58.999Z,99146.09
2022-09-15T05:13:25.602Z,99141.97
2022-09-15T05:15:52.052Z,99152.59
2022-09-15T05:18:18.548Z,99158.59
2022-09-15T05:20:44.970Z,99156.94
2022-09-15T05:23:11.414Z,99153.72
2022-09-15T05:25:38.839Z,99172.41
2022-09-15T05:28:05.615Z,99179.53
2022-09-15T05:30:38.674Z,99182.38
2022-09-15T05:33:07.076Z,99189.84
2022-09-15T05:35:33.552Z,99194.31
2022-09-15T05:38:00.054Z,99195.81
2022-09-15T05:40:26.581Z,99195.63
2022-09-15T05:42:53.041Z,99199.25
2022-09-15T05:45:19.498Z,99186.13
2022-09-15T05:47:45.921Z,99198.56
2022-09-15T05:50:12.507Z,99195.56
2022-09-15T05:52:39.056Z,99201.63
2022-09-15T05:55:05.595Z,99197.84
2022-09-15T05:57:32.329Z,99207.31
2022-09-15T05:59:58.766Z,99205.25
2022-09-15T06:02:25.291Z,99204.31
2022-09-15T06:04:51.819Z,99200.16
2022-09-15T06:07:18.316Z,99201.44
2022-09-15T06:09:45.294Z,99198.78
2022-09-15T06:12:11.729Z,99203.59
2022-09-15T06:14:38.208Z,99197.97
2022-09-15T06:17:04.678Z,99204.03
2022-09-15T06:19:31.185Z,99214.53
2022-09-15T06:21:57.713Z,99207.38
2022-09-15T06:24:24.416Z,99217.81
2022-09-15T06:26:50.959Z,99232.69
2022-09-15T06:29:17.450Z,99234.34
2022-09-15T06:31:44.000Z,99229.41
2022-09-15T06:34:11.362Z,99236.63
2022-09-15T06:36:38.970Z,99241.63
2022-09-15T06:39:05.500Z,99248.38
2022-09-15T06:41:52.534Z,99250.13
2022-09-15T06:44:19.040Z,99255.16
2022-09-15T06:46:45.544Z,99241.94
2022-09-15T06:49:12.309Z,99244.16
2022-09-15T06:51:38.938Z,99246.09
2022-09-15T06:54:05.825Z,99249.19
2022-09-15T06:56:37.634Z,99249.72
2022-09-15T06:59:04.669Z,99244.09
2022-09-15T07:01:31.999Z,99252.97
2022-09-15T07:03:59.670Z,99260.16
2022-09-15T07:06:30.539Z,99269.56
2022-09-15T07:08:58.575Z,99261.34
2022-09-15T07:11:25.385Z,99252.63
2022-09-15T07:13:52.006Z,99248.81
2022-09-15T07:16:19.441Z,99252.13
2022-09-15T07:18:46.478Z,99253.78
2022-09-15T07:21:14.210Z,99265.94
2022-09-15T07:23:41.487Z,99272.53
2022-09-15T07:26:11.058Z,99283.03
2022-09-15T07:28:38.146Z,99284.13
2022-09-15T07:31:05.905Z,99295.16
2022-09-15T07:33:32.998Z,99292.44
2022-09-15T07:36:00.786Z,99294.06
2022-09-15T07:38:27.260Z,99299.56
2022-09-15T07:40:53.700Z,99296.28
2022-09-15T07:43:20.162Z,99293.00
2022-09-15T07:45:47.067Z,99288.03
2022-09-15T07:48:13.588Z,99293.84
2022-09-15T07:50:40.032Z,99301.28
2022-09-15T07:53:06.918Z,99306.00
2022-09-15T07:55:33.340Z,99307.09
2022-09-15T07:58:03.280Z,99307.63
2022-09-15T08:00:30.140Z,99311.22
2022-09-15T08:02:56.985Z,99305.97
2022-09-15T08:05:28.141Z,99307.59
2022-09-15T08:07:55.751Z,99317.84
2022-09-15T08:10:23.053Z,99332.72
2022-09-15T08:12:49.616Z,99332.97
2022-09-15T08:15:16.041Z,99343.78
2022-09-15T08:17:42.529Z,99344.63
2022-09-15T08:20:09.266Z,99347.66
2022-09-15T08:22:35.923Z,99343.78
2022-09-15T08:25:02.339Z,99353.19
2022-09-15T08:27:28.805Z,99356.47
2022-09-15T08:29:55.370Z,99365.38
2022-09-15T08:32:21.831Z,99360.38
2022-09-15T08:34:48.328Z,99365.06
2022-09-15T08:37:16.094Z,99356.44
2022-09-15T08:39:42.589Z,99369.31
2022-09-15T08:42:14.531Z,99376.00
2022-09-15T08:44:44.780Z,99374.50
2022-09-15T08:47:29.509Z,99382.88
2022-09-15T08:50:05.189Z,99384.88
2022-09-15T08:52:49.820Z,99402.56
2022-09-15T08:55:24.909Z,99396.25
2022-09-15T08:57:54.539Z,99402.91
2022-09-15T09:00:21.037Z,99405.59
2022-09-15T09:02:50.618Z,99407.22
2022-09-15T09:05:25.085Z,99414.75
2022-09-15T09:08:10.150Z,99408.44
2022-09-15T09:10:53.568Z,99430.00
2022-09-15T09:13:20.056Z,99405.13
2022-09-15T09:15:59.060Z,99417.28
2022-09-15T09:18:28.952Z,99413.94
2022-09-15T09:21:05.913Z,99426.66
2022-09-15T09:23:33.804Z,99434.81
2022-09-15T09:26:02.115Z,99427.06
2022-09-15T09:28:30.092Z,99446.88
2022-09-15T09:31:07.145Z,99435.09
2022-09-15T09:33:46.624Z,99422.28
2022-09-15T09:36:14.188Z,99450.66
2022-09-15T09:38:45.353Z,99427.38
2022-09-15T09:41:17.140Z,99413.56
2022-09-15T09:43:46.425Z,99390.94
2022-09-15T09:46:17.719Z,99388.16
2022-09-15T09:48:47.523Z,99377.28
2022-09-15T09:51:37.065Z,99368.56
2022-09-15T09:54:04.380Z,99354.19
2022-09-15T09:56:30.806Z,99355.41
2022-09-15T09:58:57.325Z,99339.41
2022-09-15T10:01:25.316Z,99320.53
2022-09-15T10:04:17.068Z,99311.94
2022-09-15T10:06:44.193Z,99296.69
2022-09-15T10:09:16.145Z,99291.22
2022-09-15T10:11:50.382Z,99286.00
2022-09-15T10:14:35.285Z,99267.59
2022-09-15T10:17:01.930Z,99248.78
2022-09-15T10:19:29.890Z,99234.44
2022-09-15T10:21:58.071Z,99233.09
2022-09-15T10:24:27.321Z,99240.56
2022-09-15T10:27:06.155Z,99237.25
2022-09-15T10:29:39.733Z,99232.16
2022-09-15T10:32:16.528Z,99235.28
2022-09-15T10:34:44.130Z,99241.50
2022-09-15T10:37:28.874Z,99222.06
2022-09-15T10:39:56.758Z,99215.06
2022-09-15T10:42:33.202Z,99199.19
2022-09-15T10:44:59.633Z,99203.81
2022-09-15T10:47:38.463Z,99205.28
2022-09-15T10:50:15.020Z,99212.19
2022-09-15T10:52:56.312Z,99199.59
2022-09-15T10:55:42.530Z,99190.66
2022-09-15T10:58:15.232Z,99177.38
2022-09-15T11:01:00.399Z,99168.94
2022-09-15T11:03:42.487Z,99175.44
2022-09-15T11:06:14.984Z,99190.13
2022-09-15T11:08:53.401Z,99194.34
2022-09-15T11:11:19.860Z,99198.75
2022-09-15T11:14:17.390Z,99188.44
2022-09-15T11:16:47.210Z,99184.91
2022-09-15T11:19:23.933Z,99175.94
2022-09-15T11:21:53.329Z,99172.63
2022-09-15T11:24:22.548Z,99179.66
2022-09-15T11:26:57.961Z,99167.63
2022-09-15T11:29:29.504Z,99170.22
2022-09-15T11:32:00.386Z,99162.50
2022-09-15T11:34:30.431Z,99161.03
2022-09-15T11:37:03.680Z,99158.91
2022-09-15T11:39:56.104Z,99149.09
2022-09-15T11:42:22.597Z,99136.31
2022-09-15T11:44:49.518Z,99132.38
2022-09-15T11:47:16.347Z,99128.69
2022-09-15T11:49:43.435Z,99138.00
2022-09-15T11:52:28.623Z,99140.63
2022-09-15T11:55:01.066Z,99144.28
2022-09-15T11:57:32.213Z,99140.56
2022-09-15T12:00:05.612Z,99154.19
2022-09-15T12:02:38.719Z,99166.44
2022-09-15T12:05:17.981Z,99150.75
2022-09-15T12:07:50.178Z,99155.09
2022-09-15T12:10:30.208Z,99160.84
2022-09-15T12:13:00.166Z,99160.50
2022-09-15T12:15:29.520Z,99167.88
2022-09-15T12:17:58.761Z,99163.16
2022-09-15T12:20:28.605Z,99158.19
2022-09-15T12:23:02.343Z,99159.13
2022-09-15T12:25:32.533Z,99163.25
2022-09-15T12:28:18.002Z,99157.84
2022-09-15T12:30:44.516Z,99154.53
2022-09-15T12:33:29.728Z,99140.03
2022-09-15T12:35:56.229Z,99144.50
2022-09-15T12:38:23.179Z,99147.13
2022-09-15T12:40:59.584Z,99137.63
2022-09-15T12:43:31.765Z,99127.66
2022-09-15T12:46:00.706Z,99127.88
2022-09-15T12:48:35.767Z,99118.00
2022-09-15T12:51:04.968Z,99121.81
2022-09-15T12:56:07.487Z,99120.88
2022-09-15T12:58:33.941Z,99111.47
2022-09-15T13:01:18.943Z,99120.31
2022-09-15T13:03:45.849Z,99109.97
2022-09-15T13:06:15.238Z,99113.97
2022-09-15T13:08:49.276Z,99111.75
2022-09-15T13:11:22.025Z,99110.00
2022-09-15T13:13:48.444Z,99106.09
2022-09-15T13:16:18.094Z,99109.44
2022-09-15T13:18:46.260Z,99111.56
2022-09-15T13:21:15.680Z,99102.97
2022-09-15T13:23:43.801Z,99104.94
2022-09-15T13:26:15.371Z,99104.38
2022-09-15T13:28:42.402Z,99093.88
2022-09-15T13:31:08.911Z,99093.56
2022-09-15T13:39:27.210Z,99083.00
2022-09-15T13:41:53.606Z,99073.03
2022-09-15T13:44:26.292Z,99073.03
2022-09-15T13:47:16.610Z,99060.88
2022-09-15T13:49:47.196Z,99062.63
2022-09-15T13:52:23.875Z,99055.97
2022-09-15T13:55:10.356Z,99057.16
2022-09-15T14:00:33.983Z,99057.25
2022-09-15T14:03:02.693Z,99060.63
2022-09-15T14:05:31.780Z,99065.81
2022-09-15T14:08:20.920Z,99055.09
2022-09-15T14:10:50.481Z,99052.28
2022-09-15T14:13:18.786Z,99049.75
2022-09-15T14:16:12.634Z,99040.00
2022-09-15T14:18:43.785Z,99032.72
2022-09-15T14:21:15.568Z,99024.84
2022-09-15T14:23:49.994Z,99024.97
2022-09-15T14:26:18.168Z,99020.09
2022-09-15T14:28:56.255Z,99017.59
2022-09-15T14:31:30.585Z,98999.53
2022-09-15T14:33:57.186Z,98999.63
2022-09-15T14:36:34.322Z,98994.66
2022-09-15T14:39:08.777Z,98995.25
2022-09-15T14:41:36.584Z,98992.47
2022-09-15T14:45:52.335Z,98992.56
2022-09-15T14:47:12.569Z,99000.88
2022-09-15T14:49:39.139Z,98984.84
2022-09-15T14:52:16.246Z,98995.91
2022-09-15T14:54:42.843Z,98990.16
2022-09-15T14:57:10.308Z,98992.13
2022-09-15T14:59:44.856Z,98984.97
2022-09-15T15:02:20.602Z,98986.69
2022-09-15T15:04:52.365Z,98997.69
2022-09-15T15:07:27.092Z,98986.13
2022-09-15T15:10:04.774Z,98984.38
2022-09-15T15:12:40.456Z,98973.22
2022-09-15T15:15:07.205Z,98992.38
2022-09-15T15:17:35.213Z,98977.69
2022-09-15T15:20:12.803Z,98975.06
2022-09-15T15:22:40.587Z,98973.53
2022-09-15T15:25:27.731Z,98965.09
2022-09-15T15:27:55.654Z,98963.88
2022-09-15T15:30:26.707Z,98964.13
2022-09-15T15:32:53.969Z,98962.09
2022-09-15T15:35:20.828Z,98954.09
2022-09-15T15:37:47.998Z,98949.16
2022-09-15T15:40:17.387Z,98953.41
2022-09-15T15:42:59.922Z,98951.06
2022-09-15T15:45:27.938Z,98953.41
2022-09-15T15:47:54.642Z,98968.50
2022-09-15T15:50:22.326Z,98968.69
2022-09-15T15:52:49.327Z,98968.25
2022-09-15T15:55:17.303Z,98952.25
2022-09-15T15:57:44.871Z,98950.13
2022-09-15T16:00:21.289Z,98948.59
2022-09-15T16:02:48.568Z,98950.91
2022-09-15T16:05:15.361Z,98952.00
2022-09-15T16:07:42.756Z,98963.41
2022-09-15T16:10:14.831Z,98952.09
2022-09-15T16:12:41.288Z,98948.28
2022-09-15T16:15:15.884Z,98951.09
2022-09-15T16:17:46.027Z,98946.19
2022-09-15T16:20:15.789Z,98942.97
2022-09-15T16:22:45.689Z,98954.06
2022-09-15T16:25:14.513Z,98949.66
2022-09-15T16:27:41.087Z,98950.53
2022-09-15T16:30:08.472Z,98954.41
2022-09-15T16:32:34.955Z,98952.50
2022-09-15T16:35:01.396Z,98948.72
2022-09-15T16:37:27.924Z,98948.16
2022-09-15T16:39:54.802Z,98949.84
2022-09-15T16:42:21.377Z,98943.78
2022-09-15T16:44:47.870Z,98941.06
2022-09-15T16:47:14.364Z,98940.47
2022-09-15T16:49:40.971Z,98942.72
2022-09-15T16:52:09.093Z,98946.59
2022-09-15T16:54:35.808Z,98943.28
2022-09-15T16:57:02.235Z,98948.78
2022-09-15T16:59:29.328Z,98938.59
2022-09-15T17:01:55.848Z,98943.84
2022-09-15T17:04:22.842Z,98944.97
2022-09-15T17:06:49.334Z,98949.91
2022-09-15T17:09:15.806Z,98945.81
2022-09-15T17:11:42.319Z,98948.81
2022-09-15T17:14:11.732Z,98943.88
2022-09-15T17:16:38.233Z,98947.72
2022-09-15T17:19:04.701Z,98942.22
2022-09-15T17:21:31.347Z,98948.81
2022-09-15T17:23:57.753Z,98945.25
2022-09-15T17:26:31.307Z,98938.34
2022-09-15T17:28:59.993Z,98939.44
2022-09-15T17:31:27.876Z,98935.31
2022-09-15T17:33:54.606Z,98942.19
2022-09-15T17:36:21.151Z,98938.34
2022-09-15T17:38:50.831Z,98935.88
2022-09-15T17:41:21.646Z,98936.69
2022-09-15T17:43:48.108Z,98930.06
2022-09-15T17:46:14.835Z,98930.63
2022-09-15T17:48:41.563Z,98941.66
2022-09-15T17:51:08.050Z,98939.44
2022-09-15T17:53:34.626Z,98939.19
2022-09-15T17:56:01.698Z,98938.88
2022-09-15T17:58:30.016Z,98937.25
2022-09-15T18:00:57.496Z,98941.66
2022-09-15T18:03:24.137Z,98937.25
2022-09-15T18:05:51.481Z,98946.34
2022-09-15T18:08:17.971Z,98936.16
2022-09-15T18:10:44.763Z,98936.69
2022-09-15T18:13:15.846Z,98938.06
2022-09-15T18:15:45.005Z,98938.91
2022-09-15T18:18:22.474Z,98943.56
2022-09-15T18:20:53.156Z,98950.47
2022-09-15T18:23:20.619Z,98948.00
2022-09-15T18:25:47.662Z,98950.47
2022-09-15T18:28:15.388Z,98955.97
2022-09-15T18:30:43.191Z,98953.78
2022-09-15T18:33:17.322Z,98954.88
2022-09-15T18:35:44.282Z,98951.56
2022-09-15T18:38:11.435Z,98942.50
2022-09-15T18:40:38.279Z,98938.91
2022-09-15T18:43:05.507Z,98933.94
2022-09-15T18:45:31.998Z,98940.56
2022-09-15T18:47:58.591Z,98941.66
2022-09-15T18:50:25.660Z,98943.03
2022-09-15T18:52:53.037Z,98942.22
2022-09-15T18:55:20.848Z,98944.41
2022-09-15T18:57:47.406Z,98952.38
2022-09-15T19:00:18.552Z,98953.22
2022-09-15T19:02:45.257Z,98998.91
2022-09-15T19:05:11.972Z,99009.31
2022-09-15T19:07:38.939Z,99018.66
2022-09-15T19:10:06.646Z,99005.63
2022-09-15T19:12:35.058Z,99014.16
2022-09-15T19:15:01.610Z,99016.44
2022-09-15T19:17:28.139Z,99034.56
2022-09-15T19:19:55.232Z,99034.84
2022-09-15T19:22:21.734Z,99020.81
2022-09-15T19:24:48.242Z,99039.25
2022-09-15T19:27:14.684Z,99034.44
2022-09-15T19:29:41.643Z,99050.78
2022-09-15T19:32:10.592Z,99044.53
2022-09-15T19:34:38.679Z,99046.03
2022-09-15T19:37:10.307Z,99037.22
2022-09-15T19:39:39.373Z,99033.56
2022-09-15T19:42:06.711Z,99049.34
2022-09-15T19:44:33.596Z,99046.22
2022-09-15T19:47:00.359Z,99042.25
2022-09-15T19:49:26.860Z,99045.38
2022-09-15T19:51:55.275Z,99037.25
2022-09-15T19:54:26.127Z,99043.25
2022-09-15T19:56:53.222Z,99045.56
2022-09-15T19:59:20.284Z,99051.03
2022-09-15T20:01:47.118Z,99047.03
2022-09-15T20:04:13.968Z,99054.69
2022-09-15T20:06:40.536Z,99056.47
2022-09-15T20:09:07.215Z,99057.81
2022-09-15T20:11:34.113Z,99050.66
2022-09-15T20:14:00.860Z,99062.22
2022-09-15T20:16:28.053Z,99046.63
2022-09-15T20:18:56.707Z,99044.72
2022-09-15T20:21:45.971Z,99041.16
2022-09-15T20:24:11.676Z,99044.34
2022-09-15T20:26:38.183Z,99050.56
2022-09-15T20:29:05.387Z,99051.38
2022-09-15T20:31:35.043Z,99049.47
2022-09-15T20:34:02.251Z,99053.88
2022-09-15T20:36:30.699Z,99069.25
2022-09-15T20:38:57.859Z,99058.28
2022-09-15T20:41:24.697Z,99054.94
2022-09-15T20:43:51.333Z,99045.66
2022-09-15T20:46:22.449Z,99049.84
2022-09-15T20:48:50.440Z,99056.13
2022-09-15T20:51:18.174Z,99074.72
2022-09-15T20:53:45.853Z,99071.97
2022-09-15T20:56:13.274Z,99056.13
2022-09-15T20:58:39.955Z,99067.56
2022-09-15T21:01:17.018Z,99064.75
2022-09-15T21:03:44.394Z,99045.47
2022-09-15T21:06:12.900Z,99011.31
2022-09-15T21:08:39.701Z,99011.63
2022-09-15T21:11:08.941Z,99028.06
2022-09-15T21:13:38.151Z,99059.28
2022-09-15T21:16:07.815Z,99096.41
2022-09-15T21:18:35.799Z,99066.38
2022-09-15T21:21:04.977Z,99075.22
2022-09-15T21:23:32.845Z,99091.63
2022-09-15T21:26:02.160Z,99075.22
2022-09-15T21:28:28.898Z,99080.69
2022-09-15T21:31:08.579Z,99081.50
2022-09-15T21:33:36.013Z,99056.63
2022-09-15T21:36:08.683Z,99057.09
2022-09-15T21:38:35.509Z,99079.00
2022-09-15T21:41:02.331Z,99082.81
2022-09-15T21:43:29.461Z,99082.25
2022-09-15T21:45:56.664Z,99101.56
2022-09-15T21:48:23.194Z,99123.09
2022-09-15T21:50:52.959Z,99137.75
2022-09-15T21:53:20.283Z,99140.97
2022-09-15T21:55:50.275Z,99162.28
2022-09-15T21:58:18.307Z,99167.16
2022-09-15T22:00:45.423Z,99179.06
2022-09-15T22:03:12.035Z,99161.47
2022-09-15T22:05:41.529Z,99176.72
2022-09-15T22:08:11.293Z,99162.44
2022-09-15T22:10:38.144Z,99170.06
2022-09-15T22:13:05.679Z,99169.97
2022-09-15T22:15:32.495Z,99178.66
2022-09-15T22:17:59.265Z,99206.00
2022-09-15T22:20:26.274Z,99215.75
2022-09-15T22:22:52.776Z,99219.19
2022-09-15T22:25:21.882Z,99235.00
2022-09-15T22:27:48.747Z,99242.84
2022-09-15T22:30:15.364Z,99234.53
2022-09-15T22:32:41.792Z,99240.78
2022-09-15T22:35:08.553Z,99247.78
2022-09-15T22:37:37.015Z,99255.41
2022-09-15T22:40:03.661Z,99257.53
2022-09-15T22:42:30.120Z,99261.81
2022-09-15T22:44:56.581Z,99290.06
2022-09-15T22:47:23.027Z,99301.00
2022-09-15T22:49:49.481Z,99299.31
2022-09-15T22:52:16.265Z,99325.00
2022-09-15T22:54:42.809Z,99330.94
2022-09-15T22:57:09.436Z,99319.25
2022-09-15T22:59:35.897Z,99311.75
2022-09-15T23:02:02.421Z,99326.13
2022-09-15T23:04:29.018Z,99307.00
2022-09-15T23:06:55.440Z,99291.41
2022-09-15T23:09:21.877Z,99299.19
2022-09-15T23:11:48.386Z,99301.69
2022-09-15T23:14:17.702Z,99288.03
2022-09-15T23:16:56.381Z,99296.09
2022-09-15T23:19:22.816Z,99307.50
2022-09-15T23:21:49.280Z,99274.72
2022-09-15T23:24:17.098Z,99287.78
2022-09-15T23:26:43.512Z,99295.38
2022-09-15T23:29:10.186Z,99276.84
2022-09-15T23:31:36.633Z,99256.28
2022-09-15T23:34:03.214Z,99253.78
2022-09-15T23:36:29.693Z,99254.41
2022-09-15T23:38:56.119Z,99256.97
2022-09-15T23:41:22.741Z,99238.78
2022-09-15T23:43:49.334Z,99208.16
2022-09-15T23:46:16.517Z,99199.34
2022-09-15T23:48:43.082Z,99198.97
2022-09-15T23:51:09.826Z,99190.53
2022-09-15T23:53:36.463Z,99180.53
2022-09-15T23:56:03.070Z,99186.47
2022-09-15T23:58:29.660Z,99203.31
